Terminal Aerodrome Forecast
Issued by NWS Cleveland, OH

Home | Current Version | Previous Version | Text Only | Print | Product List | Glossary On
Versions: 1 2 3 4 5 6 7 8 9 10 11 12 13 14 15 16 17 18
000
FTUS41 KCLE 181700
TAFCAK
TAF
KCAK 181740Z 1818/1918 03007KT P6SM BKN070
     FM190600 VRB03KT 4SM BR SCT250
     FM190900 00000KT 1 1/2SM BR SCT250
     FM191400 19005KT P6SM SCT040=

USA.gov is the U.S. government's official web portal to all federal, state and local government web resources and services.